sensor_id;sensor_type;location;lat;lon;timestamp;pressure;altitude;pressure_sealevel;temperature;humidity
69535;BME280;56754;51.568;5.048;2023-04-12T00:01:19;100450.56;;;14.00;60.98
69535;BME280;56754;51.568;5.048;2023-04-12T00:03:44;100449.78;;;14.00;62.06
69535;BME280;56754;51.568;5.048;2023-04-12T00:06:10;100442.03;;;13.98;61.52
69535;BME280;56754;51.568;5.048;2023-04-12T00:08:36;100431.28;;;13.98;61.69
69535;BME280;56754;51.568;5.048;2023-04-12T00:11:02;100424.38;;;13.97;61.43
69535;BME280;56754;51.568;5.048;2023-04-12T00:13:28;100411.63;;;13.94;61.73
69535;BME280;56754;51.568;5.048;2023-04-12T00:15:54;100404.34;;;13.95;62.09
69535;BME280;56754;51.568;5.048;2023-04-12T00:18:19;100397.41;;;13.94;62.21
69535;BME280;56754;51.568;5.048;2023-04-12T00:20:45;100395.03;;;13.92;62.03
69535;BME280;56754;51.568;5.048;2023-04-12T00:23:10;100386.22;;;13.92;62.26
69535;BME280;56754;51.568;5.048;2023-04-12T00:25:35;100379.28;;;13.91;62.30
69535;BME280;56754;51.568;5.048;2023-04-12T00:28:01;100356.22;;;13.89;62.08
69535;BME280;56754;51.568;5.048;2023-04-12T00:30:26;100352.75;;;13.89;62.43
69535;BME280;56754;51.568;5.048;2023-04-12T00:32:51;100349.59;;;13.87;62.57
69535;BME280;56754;51.568;5.048;2023-04-12T00:35:17;100343.47;;;13.86;62.26
69535;BME280;56754;51.568;5.048;2023-04-12T00:37:42;100328.47;;;13.85;62.12
69535;BME280;56754;51.568;5.048;2023-04-12T00:40:08;100325.34;;;13.83;62.55
69535;BME280;56754;51.568;5.048;2023-04-12T00:42:35;100321.09;;;13.82;62.43
69535;BME280;56754;51.568;5.048;2023-04-12T00:45:00;100306.13;;;13.81;62.92
69535;BME280;56754;51.568;5.048;2023-04-12T00:47:26;100300.75;;;13.81;63.15
69535;BME280;56754;51.568;5.048;2023-04-12T00:49:52;100292.25;;;13.79;63.39
69535;BME280;56754;51.568;5.048;2023-04-12T00:52:17;100283.41;;;13.79;63.13
69535;BME280;56754;51.568;5.048;2023-04-12T00:54:43;100285.31;;;13.78;62.71
69535;BME280;56754;51.568;5.048;2023-04-12T00:57:09;100274.56;;;13.78;63.02
69535;BME280;56754;51.568;5.048;2023-04-12T00:59:34;100252.66;;;13.76;62.88
69535;BME280;56754;51.568;5.048;2023-04-12T01:01:59;100254.09;;;13.74;62.54
69535;BME280;56754;51.568;5.048;2023-04-12T01:04:26;100252.19;;;13.74;63.34
69535;BME280;56754;51.568;5.048;2023-04-12T01:09:44;100223.00;;;13.73;63.15
69535;BME280;56754;51.568;5.048;2023-04-12T01:15:05;100213.28;;;13.68;62.93
69535;BME280;56754;51.568;5.048;2023-04-12T01:17:34;100217.13;;;13.67;62.25
69535;BME280;56754;51.568;5.048;2023-04-12T01:20:13;100210.53;;;13.64;63.63
69535;BME280;56754;51.568;5.048;2023-04-12T01:28:00;100186.69;;;13.63;63.24
69535;BME280;56754;51.568;5.048;2023-04-12T01:30:27;100181.31;;;13.63;63.55
69535;BME280;56754;51.568;5.048;2023-04-12T01:32:54;100173.25;;;13.63;63.75
69535;BME280;56754;51.568;5.048;2023-04-12T01:35:23;100166.34;;;13.62;63.90
69535;BME280;56754;51.568;5.048;2023-04-12T01:37:50;100160.97;;;13.62;63.73
69535;BME280;56754;51.568;5.048;2023-04-12T01:40:17;100158.28;;;13.62;63.85
69535;BME280;56754;51.568;5.048;2023-04-12T01:42:43;100154.06;;;13.61;63.68
69535;BME280;56754;51.568;5.048;2023-04-12T01:45:08;100145.56;;;13.59;63.82
69535;BME280;56754;51.568;5.048;2023-04-12T01:47:34;100140.94;;;13.59;64.14
69535;BME280;56754;51.568;5.048;2023-04-12T01:52:42;100114.47;;;13.58;63.77
69535;BME280;56754;51.568;5.048;2023-04-12T01:55:11;100119.84;;;13.58;63.84
69535;BME280;56754;51.568;5.048;2023-04-12T01:57:38;100110.19;;;13.57;64.04
69535;BME280;56754;51.568;5.048;2023-04-12T02:00:05;100103.28;;;13.56;63.43
69535;BME280;56754;51.568;5.048;2023-04-12T02:02:31;100087.50;;;13.54;63.75
69535;BME280;56754;51.568;5.048;2023-04-12T02:04:58;100084.81;;;13.54;63.94
69535;BME280;56754;51.568;5.048;2023-04-12T02:07:24;100083.28;;;13.53;63.48
69535;BME280;56754;51.568;5.048;2023-04-12T02:09:50;100087.88;;;13.53;64.22
69535;BME280;56754;51.568;5.048;2023-04-12T02:12:15;100075.56;;;13.52;63.80
69535;BME280;56754;51.568;5.048;2023-04-12T02:14:40;100063.25;;;13.51;64.55
69535;BME280;56754;51.568;5.048;2023-04-12T02:17:06;100059.03;;;13.50;63.68
69535;BME280;56754;51.568;5.048;2023-04-12T02:19:31;100057.13;;;13.50;64.62
69535;BME280;56754;51.568;5.048;2023-04-12T02:21:56;100041.34;;;13.49;64.18
69535;BME280;56754;51.568;5.048;2023-04-12T02:24:22;100037.56;;;13.50;64.26
69535;BME280;56754;51.568;5.048;2023-04-12T02:26:47;100026.81;;;13.50;64.48
69535;BME280;56754;51.568;5.048;2023-04-12T02:29:12;100017.19;;;13.49;64.29
69535;BME280;56754;51.568;5.048;2023-04-12T02:31:38;100011.03;;;13.48;63.97
69535;BME280;56754;51.568;5.048;2023-04-12T02:34:03;100003.75;;;13.49;64.58
69535;BME280;56754;51.568;5.048;2023-04-12T02:36:29;99997.97;;;13.47;63.98
69535;BME280;56754;51.568;5.048;2023-04-12T02:38:55;99991.84;;;13.46;64.39
69535;BME280;56754;51.568;5.048;2023-04-12T02:41:21;99981.88;;;13.47;63.98
69535;BME280;56754;51.568;5.048;2023-04-12T02:43:46;99976.50;;;13.47;63.94
69535;BME280;56754;51.568;5.048;2023-04-12T02:46:20;99966.09;;;13.45;64.57
69535;BME280;56754;51.568;5.048;2023-04-12T02:48:46;99964.19;;;13.46;64.60
69535;BME280;56754;51.568;5.048;2023-04-12T02:51:12;99949.22;;;13.45;64.73
69535;BME280;56754;51.568;5.048;2023-04-12T02:53:37;99944.22;;;13.43;63.37
69535;BME280;56754;51.568;5.048;2023-04-12T02:56:03;99935.38;;;13.42;64.49
69535;BME280;56754;51.568;5.048;2023-04-12T02:58:29;99942.66;;;13.42;64.54
69535;BME280;56754;51.568;5.048;2023-04-12T03:00:54;99934.97;;;13.40;63.65
69535;BME280;56754;51.568;5.048;2023-04-12T03:03:20;99929.94;;;13.39;64.48
69535;BME280;56754;51.568;5.048;2023-04-12T03:05:45;99933.38;;;13.39;64.65
69535;BME280;56754;51.568;5.048;2023-04-12T03:08:10;99929.59;;;13.40;64.70
69535;BME280;56754;51.568;5.048;2023-04-12T03:10:36;99932.28;;;13.40;64.60
69535;BME280;56754;51.568;5.048;2023-04-12T03:13:01;99926.13;;;13.40;64.85
69535;BME280;56754;51.568;5.048;2023-04-12T03:15:26;99911.50;;;13.37;64.35
69535;BME280;56754;51.568;5.048;2023-04-12T03:17:52;99917.97;;;13.36;64.42
69535;BME280;56754;51.568;5.048;2023-04-12T03:20:17;99911.84;;;13.36;64.90
69535;BME280;56754;51.568;5.048;2023-04-12T03:22:42;99904.91;;;13.35;64.46
69535;BME280;56754;51.568;5.048;2023-04-12T03:25:08;99910.28;;;13.35;64.79
69535;BME280;56754;51.568;5.048;2023-04-12T03:27:33;99908.38;;;13.35;64.60
69535;BME280;56754;51.568;5.048;2023-04-12T03:29:58;99904.16;;;13.34;64.67
69535;BME280;56754;51.568;5.048;2023-04-12T03:32:24;99893.75;;;13.33;64.40
69535;BME280;56754;51.568;5.048;2023-04-12T03:34:49;99890.28;;;13.32;64.72
69535;BME280;56754;51.568;5.048;2023-04-12T03:37:14;99882.25;;;13.32;64.70
69535;BME280;56754;51.568;5.048;2023-04-12T03:39:39;99870.72;;;13.32;64.71
69535;BME280;56754;51.568;5.048;2023-04-12T03:42:05;99872.66;;;13.31;64.66
69535;BME280;56754;51.568;5.048;2023-04-12T03:44:30;99869.97;;;13.31;64.99
69535;BME280;56754;51.568;5.048;2023-04-12T03:46:55;99859.56;;;13.30;64.88
69535;BME280;56754;51.568;5.048;2023-04-12T03:49:21;99849.59;;;13.30;65.15
69535;BME280;56754;51.568;5.048;2023-04-12T03:51:46;99843.81;;;13.28;64.26
69535;BME280;56754;51.568;5.048;2023-04-12T03:54:12;99840.34;;;13.28;65.17
69535;BME280;56754;51.568;5.048;2023-04-12T03:56:37;99842.69;;;13.29;65.29
69535;BME280;56754;51.568;5.048;2023-04-12T03:59:07;99832.28;;;13.28;65.05
69535;BME280;56754;51.568;5.048;2023-04-12T04:01:35;99822.69;;;13.27;65.28
69535;BME280;56754;51.568;5.048;2023-04-12T04:04:01;99813.50;;;13.28;65.00
69535;BME280;56754;51.568;5.048;2023-04-12T04:06:27;99812.72;;;13.27;65.09
69535;BME280;56754;51.568;5.048;2023-04-12T04:08:55;99808.50;;;13.26;64.65
69535;BME280;56754;51.568;5.048;2023-04-12T04:11:20;99810.41;;;13.26;65.27
69535;BME280;56754;51.568;5.048;2023-04-12T04:13:45;99798.91;;;13.25;65.42
69535;BME280;56754;51.568;5.048;2023-04-12T04:16:11;99800.47;;;13.26;65.22
69535;BME280;56754;51.568;5.048;2023-04-12T04:18:37;99800.47;;;13.26;65.37
69535;BME280;56754;51.568;5.048;2023-04-12T04:21:02;99792.72;;;13.25;65.47
69535;BME280;56754;51.568;5.048;2023-04-12T04:23:30;99791.94;;;13.24;65.64
69535;BME280;56754;51.568;5.048;2023-04-12T04:25:55;99797.31;;;13.24;64.92
69535;BME280;56754;51.568;5.048;2023-04-12T04:28:20;99790.41;;;13.23;65.74
69535;BME280;56754;51.568;5.048;2023-04-12T04:30:46;99786.94;;;13.23;65.69
69535;BME280;56754;51.568;5.048;2023-04-12T04:33:12;99789.25;;;13.24;65.84
69535;BME280;56754;51.568;5.048;2023-04-12T04:35:41;99790.41;;;13.23;65.52
69535;BME280;56754;51.568;5.048;2023-04-12T04:38:06;99785.75;;;13.20;65.15
69535;BME280;56754;51.568;5.048;2023-04-12T04:40:31;99791.09;;;13.20;65.43
69535;BME280;56754;51.568;5.048;2023-04-12T04:42:57;99788.75;;;13.18;64.80
69535;BME280;56754;51.568;5.048;2023-04-12T04:45:23;99785.31;;;13.18;65.83
69535;BME280;56754;51.568;5.048;2023-04-12T04:47:48;99781.06;;;13.17;66.16
69535;BME280;56754;51.568;5.048;2023-04-12T04:50:14;99791.03;;;13.16;65.46
69535;BME280;56754;51.568;5.048;2023-04-12T04:52:39;99787.53;;;13.16;65.52
69535;BME280;56754;51.568;5.048;2023-04-12T04:55:05;99781.41;;;13.15;65.92
69535;BME280;56754;51.568;5.048;2023-04-12T04:57:30;99774.13;;;13.16;65.77
69535;BME280;56754;51.568;5.048;2023-04-12T04:59:55;99777.63;;;13.16;65.74
69535;BME280;56754;51.568;5.048;2023-04-12T05:02:21;99771.03;;;13.14;65.65
69535;BME280;56754;51.568;5.048;2023-04-12T05:04:46;99767.22;;;13.15;65.39
69535;BME280;56754;51.568;5.048;2023-04-12T05:07:11;99776.41;;;13.14;66.09
69535;BME280;56754;51.568;5.048;2023-04-12T05:09:37;99771.38;;;13.12;64.98
69535;BME280;56754;51.568;5.048;2023-04-12T05:12:02;99773.28;;;13.12;65.90
69535;BME280;56754;51.568;5.048;2023-04-12T05:14:27;99764.47;;;13.11;66.06
69535;BME280;56754;51.568;5.048;2023-04-12T05:16:53;99764.91;;;13.13;65.79
69535;BME280;56754;51.568;5.048;2023-04-12T05:19:18;99757.63;;;13.14;66.08
69535;BME280;56754;51.568;5.048;2023-04-12T05:21:43;99754.19;;;13.13;65.96
69535;BME280;56754;51.568;5.048;2023-04-12T05:24:09;99759.53;;;13.13;65.92
69535;BME280;56754;51.568;5.048;2023-04-12T05:26:34;99757.19;;;13.12;65.05
69535;BME280;56754;51.568;5.048;2023-04-12T05:28:59;99760.25;;;13.10;65.61
69535;BME280;56754;51.568;5.048;2023-04-12T05:31:24;99755.66;;;13.11;66.42
69535;BME280;56754;51.568;5.048;2023-04-12T05:33:50;99755.66;;;13.11;65.94
69535;BME280;56754;51.568;5.048;2023-04-12T05:36:15;99751.84;;;13.12;66.44
69535;BME280;56754;51.568;5.048;2023-04-12T05:38:40;99757.19;;;13.12;66.34
69535;BME280;56754;51.568;5.048;2023-04-12T05:41:06;99759.88;;;13.12;66.42
69535;BME280;56754;51.568;5.048;2023-04-12T05:43:31;99754.09;;;13.10;66.08
69535;BME280;56754;51.568;5.048;2023-04-12T05:45:56;99759.88;;;13.12;66.73
69535;BME280;56754;51.568;5.048;2023-04-12T05:48:22;99768.69;;;13.12;65.12
69535;BME280;56754;51.568;5.048;2023-04-12T05:50:50;99769.06;;;13.11;65.84
69535;BME280;56754;51.568;5.048;2023-04-12T05:53:16;99772.84;;;13.10;66.22
69535;BME280;56754;51.568;5.048;2023-04-12T05:55:41;99791.22;;;13.08;66.42
69535;BME280;56754;51.568;5.048;2023-04-12T05:58:06;99780.50;;;13.08;66.18
69535;BME280;56754;51.568;5.048;2023-04-12T06:00:32;99790.78;;;13.06;65.85
69535;BME280;56754;51.568;5.048;2023-04-12T06:02:57;99788.13;;;13.06;66.30
69535;BME280;56754;51.568;5.048;2023-04-12T06:05:23;99776.59;;;13.05;65.84
69535;BME280;56754;51.568;5.048;2023-04-12T06:07:48;99780.84;;;13.06;66.39
69535;BME280;56754;51.568;5.048;2023-04-12T06:10:15;99778.16;;;13.06;66.35
69535;BME280;56754;51.568;5.048;2023-04-12T06:12:40;99777.81;;;13.08;66.27
69535;BME280;56754;51.568;5.048;2023-04-12T06:15:06;99781.28;;;13.08;66.18
69535;BME280;56754;51.568;5.048;2023-04-12T06:17:31;99785.16;;;13.11;66.70
69535;BME280;56754;51.568;5.048;2023-04-12T06:19:56;99779.22;;;13.21;66.00
69535;BME280;56754;51.568;5.048;2023-04-12T06:22:22;99776.38;;;13.30;65.96
69535;BME280;56754;51.568;5.048;2023-04-12T06:24:47;99774.63;;;13.37;65.48
69535;BME280;56754;51.568;5.048;2023-04-12T06:27:12;99769.31;;;13.41;65.42
69535;BME280;56754;51.568;5.048;2023-04-12T06:29:38;99766.34;;;13.46;65.54
69535;BME280;56754;51.568;5.048;2023-04-12T06:32:03;99760.63;;;13.48;65.36
69535;BME280;56754;51.568;5.048;2023-04-12T06:34:28;99763.38;;;13.51;65.27
69535;BME280;56754;51.568;5.048;2023-04-12T06:36:54;99755.75;;;13.53;65.38
69535;BME280;56754;51.568;5.048;2023-04-12T06:39:19;99757.72;;;13.56;65.26
69535;BME280;56754;51.568;5.048;2023-04-12T06:41:44;99770.81;;;13.58;65.28
69535;BME280;56754;51.568;5.048;2023-04-12T06:44:10;99764.28;;;13.59;65.20
69535;BME280;56754;51.568;5.048;2023-04-12T06:46:35;99760.47;;;13.60;65.44
69535;BME280;56754;51.568;5.048;2023-04-12T06:49:00;99766.25;;;13.62;65.17
69535;BME280;56754;51.568;5.048;2023-04-12T06:51:26;99763.22;;;13.63;65.34
69535;BME280;56754;51.568;5.048;2023-04-12T06:53:51;99765.56;;;13.65;65.18
69535;BME280;56754;51.568;5.048;2023-04-12T06:56:16;99764.41;;;13.66;65.29
69535;BME280;56754;51.568;5.048;2023-04-12T06:58:41;99761.38;;;13.68;64.99
69535;BME280;56754;51.568;5.048;2023-04-12T07:01:08;99762.16;;;13.68;64.98
69535;BME280;56754;51.568;5.048;2023-04-12T07:03:33;99766.38;;;13.69;65.15
69535;BME280;56754;51.568;5.048;2023-04-12T07:05:58;99764.13;;;13.71;64.84
69535;BME280;56754;51.568;5.048;2023-04-12T07:08:24;99765.66;;;13.72;65.01
69535;BME280;56754;51.568;5.048;2023-04-12T07:10:56;99761.88;;;13.73;64.83
69535;BME280;56754;51.568;5.048;2023-04-12T07:13:21;99764.19;;;13.75;65.14
69535;BME280;56754;51.568;5.048;2023-04-12T07:15:49;99763.84;;;13.76;64.88
69535;BME280;56754;51.568;5.048;2023-04-12T07:18:15;99758.91;;;13.78;64.98
69535;BME280;56754;51.568;5.048;2023-04-12T07:20:40;99765.81;;;13.79;64.70
69535;BME280;56754;51.568;5.048;2023-04-12T07:23:06;99765.81;;;13.79;64.77
69535;BME280;56754;51.568;5.048;2023-04-12T07:25:31;99770.03;;;13.80;64.47
69535;BME280;56754;51.568;5.048;2023-04-12T07:27:56;99766.97;;;13.78;64.62
69535;BME280;56754;51.568;5.048;2023-04-12T07:30:22;99772.34;;;13.78;64.39
69535;BME280;56754;51.568;5.048;2023-04-12T07:32:47;99762.72;;;13.77;64.50
69535;BME280;56754;51.568;5.048;2023-04-12T07:35:13;99766.53;;;13.76;64.42
69535;BME280;56754;51.568;5.048;2023-04-12T07:37:38;99763.06;;;13.76;64.38
69535;BME280;56754;51.568;5.048;2023-04-12T07:40:04;99762.28;;;13.75;64.19
69535;BME280;56754;51.568;5.048;2023-04-12T07:42:29;99754.22;;;13.75;64.08
69535;BME280;56754;51.568;5.048;2023-04-12T07:44:55;99740.78;;;13.75;64.23
69535;BME280;56754;51.568;5.048;2023-04-12T07:47:20;99742.38;;;13.76;64.21
69535;BME280;56754;51.568;5.048;2023-04-12T07:49:47;99726.25;;;13.76;63.85
69535;BME280;56754;51.568;5.048;2023-04-12T07:52:12;99722.78;;;13.76;63.87
69535;BME280;56754;51.568;5.048;2023-04-12T07:54:37;99722.78;;;13.76;63.75
69535;BME280;56754;51.568;5.048;2023-04-12T07:57:03;99714.75;;;13.76;64.01
69535;BME280;56754;51.568;5.048;2023-04-12T07:59:29;99733.16;;;13.77;63.89
69535;BME280;56754;51.568;5.048;2023-04-12T08:01:54;99740.09;;;13.78;63.72
69535;BME280;56754;51.568;5.048;2023-04-12T08:04:20;99746.66;;;13.81;63.98
69535;BME280;56754;51.568;5.048;2023-04-12T08:06:45;99747.84;;;13.83;64.06
69535;BME280;56754;51.568;5.048;2023-04-12T08:09:10;99744.81;;;13.85;63.67
69535;BME280;56754;51.568;5.048;2023-04-12T08:11:35;99743.69;;;13.86;63.59
69535;BME280;56754;51.568;5.048;2023-04-12T08:14:01;99746.78;;;13.88;63.54
69535;BME280;56754;51.568;5.048;2023-04-12T08:16:26;99754.84;;;13.88;63.27
69535;BME280;56754;51.568;5.048;2023-04-12T08:18:52;99746.78;;;13.88;63.17
69535;BME280;56754;51.568;5.048;2023-04-12T08:21:17;99739.50;;;13.88;63.41
69535;BME280;56754;51.568;5.048;2023-04-12T08:23:42;99745.31;;;13.91;63.32
69535;BME280;56754;51.568;5.048;2023-04-12T08:26:08;99746.06;;;13.91;63.35
69535;BME280;56754;51.568;5.048;2023-04-12T08:28:34;99738.00;;;13.91;63.45
69535;BME280;56754;51.568;5.048;2023-04-12T08:30:59;99752.66;;;13.94;63.29
69535;BME280;56754;51.568;5.048;2023-04-12T08:33:24;99758.38;;;13.92;63.09
69535;BME280;56754;51.568;5.048;2023-04-12T08:35:50;99752.22;;;13.92;63.23
69535;BME280;56754;51.568;5.048;2023-04-12T08:38:15;99753.41;;;13.94;63.31
69535;BME280;56754;51.568;5.048;2023-04-12T08:40:41;99753.03;;;13.96;63.41
69535;BME280;56754;51.568;5.048;2023-04-12T08:43:07;99758.84;;;13.98;63.22
69535;BME280;56754;51.568;5.048;2023-04-12T08:45:34;99758.06;;;13.97;63.04
69535;BME280;56754;51.568;5.048;2023-04-12T08:48:01;99746.56;;;13.97;63.10
69535;BME280;56754;51.568;5.048;2023-04-12T08:50:27;99748.09;;;13.98;63.33
69535;BME280;56754;51.568;5.048;2023-04-12T08:52:53;99754.25;;;13.98;62.98
69535;BME280;56754;51.568;5.048;2023-04-12T08:55:18;99755.03;;;13.99;62.93
69535;BME280;56754;51.568;5.048;2023-04-12T08:57:44;99744.28;;;13.99;63.10
69535;BME280;56754;51.568;5.048;2023-04-12T09:00:10;99750.84;;;14.01;62.95
69535;BME280;56754;51.568;5.048;2023-04-12T09:02:36;99743.22;;;14.03;63.06
69535;BME280;56754;51.568;5.048;2023-04-12T09:05:02;99741.72;;;14.06;63.00
69535;BME280;56754;51.568;5.048;2023-04-12T09:07:27;99742.16;;;14.08;62.76
69535;BME280;56754;51.568;5.048;2023-04-12T09:09:54;99738.75;;;14.11;62.59
69535;BME280;56754;51.568;5.048;2023-04-12T09:12:19;99738.38;;;14.13;62.80
69535;BME280;56754;51.568;5.048;2023-04-12T09:14:44;99739.19;;;14.17;62.57
69535;BME280;56754;51.568;5.048;2023-04-12T09:17:26;99735.81;;;14.20;62.38
69535;BME280;56754;51.568;5.048;2023-04-12T09:19:53;99740.03;;;14.21;62.51
69535;BME280;56754;51.568;5.048;2023-04-12T09:22:18;99738.13;;;14.21;62.09
69535;BME280;56754;51.568;5.048;2023-04-12T09:24:50;99740.81;;;14.21;62.11
69535;BME280;56754;51.568;5.048;2023-04-12T09:27:16;99731.59;;;14.22;62.19
69535;BME280;56754;51.568;5.048;2023-04-12T09:29:41;99734.28;;;14.22;61.80
69535;BME280;56754;51.568;5.048;2023-04-12T09:32:08;99726.22;;;14.22;61.65
69535;BME280;56754;51.568;5.048;2023-04-12T09:34:35;99736.97;;;14.22;61.37
69535;BME280;56754;51.568;5.048;2023-04-12T09:37:14;99724.69;;;14.21;61.07
69535;BME280;56754;51.568;5.048;2023-04-12T09:39:40;99721.22;;;14.21;61.55
69535;BME280;56754;51.568;5.048;2023-04-12T09:42:08;99713.16;;;14.21;61.36
69535;BME280;56754;51.568;5.048;2023-04-12T09:44:33;99716.63;;;14.21;61.31
69535;BME280;56754;51.568;5.048;2023-04-12T09:47:00;99715.47;;;14.22;61.52
69535;BME280;56754;51.568;5.048;2023-04-12T09:49:39;99706.31;;;14.23;61.32
69535;BME280;56754;51.568;5.048;2023-04-12T09:52:06;99717.06;;;14.23;61.00
69535;BME280;56754;51.568;5.048;2023-04-12T09:54:43;99716.28;;;14.23;61.08
69535;BME280;56754;51.568;5.048;2023-04-12T09:57:11;99717.06;;;14.23;61.20
69535;BME280;56754;51.568;5.048;2023-04-12T09:59:38;99708.59;;;14.25;61.18
69535;BME280;56754;51.568;5.048;2023-04-12T10:02:13;99712.88;;;14.26;61.26
69535;BME280;56754;51.568;5.048;2023-04-12T10:04:39;99717.88;;;14.27;61.17
69535;BME280;56754;51.568;5.048;2023-04-12T10:07:06;99721.75;;;14.30;61.41
69535;BME280;56754;51.568;5.048;2023-04-12T10:09:32;99717.16;;;14.30;60.67
69535;BME280;56754;51.568;5.048;2023-04-12T10:11:59;99720.59;;;14.31;60.67
69535;BME280;56754;51.568;5.048;2023-04-12T10:14:27;99720.59;;;14.31;60.65
69535;BME280;56754;51.568;5.048;2023-04-12T10:16:57;99713.31;;;14.31;61.06
69535;BME280;56754;51.568;5.048;2023-04-12T10:19:25;99714.88;;;14.32;61.95
69535;BME280;56754;51.568;5.048;2023-04-12T10:21:50;99729.09;;;14.33;60.62
69535;BME280;56754;51.568;5.048;2023-04-12T10:24:16;99721.03;;;14.33;60.44
69535;BME280;56754;51.568;5.048;2023-04-12T10:26:41;99725.25;;;14.34;59.47
69535;BME280;56754;51.568;5.048;2023-04-12T10:29:30;99718.75;;;14.35;59.48
69535;BME280;56754;51.568;5.048;2023-04-12T10:31:57;99721.06;;;14.37;59.49
69535;BME280;56754;51.568;5.048;2023-04-12T10:34:26;99722.66;;;14.38;57.94
69535;BME280;56754;51.568;5.048;2023-04-12T10:36:55;99720.69;;;14.34;56.59
69535;BME280;56754;51.568;5.048;2023-04-12T10:39:45;99721.03;;;14.33;57.62
69535;BME280;56754;51.568;5.048;2023-04-12T10:42:20;99719.50;;;14.32;57.27
69535;BME280;56754;51.568;5.048;2023-04-12T10:44:46;99725.63;;;14.32;57.11
69535;BME280;56754;51.568;5.048;2023-04-12T10:47:11;99720.25;;;14.32;57.39
69535;BME280;56754;51.568;5.048;2023-04-12T10:49:39;99724.50;;;14.33;56.89
69535;BME280;56754;51.568;5.048;2023-04-12T10:54:31;99732.56;;;14.33;55.79
69535;BME280;56754;51.568;5.048;2023-04-12T10:56:58;99734.13;;;14.34;55.65
69535;BME280;56754;51.568;5.048;2023-04-12T10:59:23;99736.81;;;14.34;55.81
69535;BME280;56754;51.568;5.048;2023-04-12T11:02:11;99734.13;;;14.34;55.51
69535;BME280;56754;51.568;5.048;2023-04-12T11:04:36;99739.91;;;14.37;54.86
69535;BME280;56754;51.568;5.048;2023-04-12T11:07:06;99732.97;;;14.36;55.28
69535;BME280;56754;51.568;5.048;2023-04-12T11:14:45;99742.63;;;14.40;54.86
69535;BME280;56754;51.568;5.048;2023-04-12T11:19:54;99740.03;;;14.44;54.68
69535;BME280;56754;51.568;5.048;2023-04-12T11:22:21;99736.97;;;14.45;54.96
69535;BME280;56754;51.568;5.048;2023-04-12T11:24:58;99739.66;;;14.45;54.54
69535;BME280;56754;51.568;5.048;2023-04-12T11:27:25;99730.09;;;14.48;52.27
69535;BME280;56754;51.568;5.048;2023-04-12T11:29:56;99745.44;;;14.47;53.75
69535;BME280;56754;51.568;5.048;2023-04-12T11:32:23;99741.97;;;14.47;53.93
69535;BME280;56754;51.568;5.048;2023-04-12T11:34:49;99748.91;;;14.48;54.42
69535;BME280;56754;51.568;5.048;2023-04-12T11:37:18;99764.25;;;14.47;53.92
69535;BME280;56754;51.568;5.048;2023-04-12T11:39:44;99760.44;;;14.48;53.46
69535;BME280;56754;51.568;5.048;2023-04-12T11:42:18;99765.03;;;14.48;53.53
69535;BME280;56754;51.568;5.048;2023-04-12T11:44:44;99762.34;;;14.48;53.87
69535;BME280;56754;51.568;5.048;2023-04-12T11:47:20;99762.34;;;14.48;53.73
69535;BME280;56754;51.568;5.048;2023-04-12T11:49:50;99767.72;;;14.48;53.28
69535;BME280;56754;51.568;5.048;2023-04-12T11:52:17;99768.16;;;14.50;53.44
69535;BME280;56754;51.568;5.048;2023-04-12T11:54:47;99762.34;;;14.48;53.35
69535;BME280;56754;51.568;5.048;2023-04-12T11:57:14;99773.09;;;14.48;53.68
69535;BME280;56754;51.568;5.048;2023-04-12T11:59:42;99784.19;;;14.46;54.06
69535;BME280;56754;51.568;5.048;2023-04-12T12:02:08;99790.72;;;14.45;53.71
69535;BME280;56754;51.568;5.048;2023-04-12T12:04:33;99788.41;;;14.44;54.55
69535;BME280;56754;51.568;5.048;2023-04-12T12:06:59;99784.56;;;14.45;54.49
69535;BME280;56754;51.568;5.048;2023-04-12T12:09:25;99781.88;;;14.45;55.00
69535;BME280;56754;51.568;5.048;2023-04-12T12:11:50;99777.28;;;14.45;54.67
69535;BME280;56754;51.568;5.048;2023-04-12T12:14:20;99766.94;;;14.47;54.75
69535;BME280;56754;51.568;5.048;2023-04-12T12:16:58;99768.91;;;14.50;57.49
69535;BME280;56754;51.568;5.048;2023-04-12T12:19:32;99768.16;;;14.50;55.62
69535;BME280;56754;51.568;5.048;2023-04-12T12:22:19;99766.69;;;14.52;54.75
69535;BME280;56754;51.568;5.048;2023-04-12T12:24:57;99760.97;;;14.57;55.20
69535;BME280;56754;51.568;5.048;2023-04-12T12:29:54;99768.06;;;14.69;54.76
69535;BME280;56754;51.568;5.048;2023-04-12T12:32:20;99758.16;;;14.73;55.16
69535;BME280;56754;51.568;5.048;2023-04-12T12:34:52;99768.56;;;14.78;54.81
69535;BME280;56754;51.568;5.048;2023-04-12T12:37:28;99777.84;;;14.81;54.59
69535;BME280;56754;51.568;5.048;2023-04-12T12:40:07;99785.50;;;14.79;53.44
69535;BME280;56754;51.568;5.048;2023-04-12T12:42:34;99800.84;;;14.78;54.12
69535;BME280;56754;51.568;5.048;2023-04-12T12:44:59;99816.22;;;14.78;54.39
69535;BME280;56754;51.568;5.048;2023-04-12T12:47:24;99808.53;;;14.76;54.80
69535;BME280;56754;51.568;5.048;2023-04-12T12:49:50;99803.50;;;14.75;55.12
69535;BME280;56754;51.568;5.048;2023-04-12T12:52:15;99794.66;;;14.74;55.00
69535;BME280;56754;51.568;5.048;2023-04-12T12:54:40;99798.50;;;14.73;54.93
69535;BME280;56754;51.568;5.048;2023-04-12T12:57:06;99797.69;;;14.73;54.89
69535;BME280;56754;51.568;5.048;2023-04-12T12:59:31;99798.41;;;14.70;55.27
69535;BME280;56754;51.568;5.048;2023-04-12T13:01:56;99788.03;;;14.68;55.22
69535;BME280;56754;51.568;5.048;2023-04-12T13:04:21;99772.25;;;14.67;55.04
69535;BME280;56754;51.568;5.048;2023-04-12T13:06:47;99778.78;;;14.66;54.90
69535;BME280;56754;51.568;5.048;2023-04-12T13:09:12;99772.63;;;14.65;54.68
69535;BME280;56754;51.568;5.048;2023-04-12T13:11:37;99768.41;;;14.64;54.68
69535;BME280;56754;51.568;5.048;2023-04-12T13:14:03;99768.41;;;14.64;54.71
69535;BME280;56754;51.568;5.048;2023-04-12T13:16:28;99776.84;;;14.66;55.00
69535;BME280;56754;51.568;5.048;2023-04-12T13:18:53;99763.84;;;14.68;55.13
69535;BME280;56754;51.568;5.048;2023-04-12T13:21:19;99776.97;;;14.73;55.34